createdAt,value
2023-02-25T00:14:15.225Z,3871.18042
2023-02-25T00:29:17.419Z,2511.41772
2023-02-25T00:44:19.579Z,1375.771
2023-02-25T00:59:21.794Z,707.18958
2023-02-25T01:14:24.059Z,330.52405
2023-02-25T01:29:26.309Z,83.80809
2023-02-25T01:44:28.826Z,8.47498
2023-02-25T01:59:31.045Z,0
2023-02-25T02:14:33.404Z,0
2023-02-25T02:29:35.664Z,0
2023-02-25T02:44:37.938Z,0
2023-02-25T02:59:40.260Z,0
2023-02-25T03:14:42.606Z,0
2023-02-25T03:29:45.001Z,0
2023-02-25T03:44:47.277Z,0
2023-02-25T03:59:49.535Z,0
2023-02-25T04:14:51.751Z,0
2023-02-25T04:29:54.215Z,0
2023-02-25T04:44:56.465Z,0
2023-02-25T04:59:58.805Z,0
2023-02-25T05:15:01.251Z,0
2023-02-25T05:30:03.448Z,0
2023-02-25T05:45:05.709Z,0
2023-02-25T06:00:07.960Z,0
2023-02-25T06:15:10.189Z,0
2023-02-25T06:30:12.438Z,0
2023-02-25T06:45:14.708Z,0
2023-02-25T07:00:16.915Z,0
2023-02-25T07:15:19.126Z,0
2023-02-25T07:30:21.331Z,0
2023-02-25T07:45:23.583Z,0
2023-02-25T08:00:25.984Z,0
2023-02-25T08:15:28.361Z,0
2023-02-25T08:30:30.647Z,0
2023-02-25T08:45:32.839Z,0
2023-02-25T09:00:35.076Z,0
2023-02-25T09:15:37.424Z,0
2023-02-25T09:30:39.765Z,0
2023-02-25T09:45:42.024Z,0
2023-02-25T10:00:44.462Z,0
2023-02-25T10:15:52.477Z,0
2023-02-25T10:30:55.582Z,0
2023-02-25T10:45:57.839Z,0
2023-02-25T11:01:00.155Z,0
2023-02-25T11:16:02.392Z,0
2023-02-25T11:31:04.705Z,0
2023-02-25T11:46:06.992Z,0
2023-02-25T12:01:10.546Z,0
2023-02-25T12:16:13.967Z,0
2023-02-25T12:31:16.259Z,0
2023-02-25T12:46:18.557Z,0
2023-02-25T13:01:21.043Z,0
2023-02-25T13:16:23.624Z,0
2023-02-25T13:31:26.404Z,0
2023-02-25T13:46:28.834Z,0
2023-02-25T14:01:31.181Z,0
2023-02-25T14:16:33.458Z,3.76666
2023-02-25T14:31:35.795Z,47.08319
2023-02-25T14:46:38.044Z,219.4077
2023-02-25T15:01:40.309Z,924.71399
2023-02-25T15:16:42.559Z,1161.07166
2023-02-25T15:31:44.859Z,1398.37097
2023-02-25T15:46:47.160Z,2465.27612
2023-02-25T16:01:49.505Z,3948.39673
2023-02-25T16:16:51.757Z,6299.73145
2023-02-25T16:31:54.038Z,5164.08496
2023-02-25T16:46:56.342Z,5577.47559
2023-02-25T17:01:58.671Z,6728.18848
2023-02-25T17:17:00.934Z,8351.61719
2023-02-25T17:32:03.393Z,6201.79834
2023-02-25T17:47:05.666Z,5919.29932
2023-02-25T18:02:07.881Z,9493.85547
2023-02-25T18:17:10.068Z,5785.58301
2023-02-25T18:32:12.966Z,5559.58398
2023-02-25T18:47:15.303Z,6233.81494
2023-02-25T19:02:17.571Z,7518.24463
2023-02-25T19:17:19.867Z,6618.01416
2023-02-25T19:32:22.231Z,6046.42383
2023-02-25T19:47:24.491Z,8128.44287
2023-02-25T20:02:26.884Z,5675.40869
2023-02-25T20:17:29.280Z,5612.31689
2023-02-25T20:32:31.857Z,5371.25098
2023-02-25T20:47:34.077Z,6553.98096
2023-02-25T21:02:36.325Z,10771.69336
2023-02-25T21:17:38.522Z,6240.40674
2023-02-25T21:32:40.719Z,5620.79199
2023-02-25T21:47:43.324Z,4883.46924
2023-02-25T22:02:45.544Z,4364.6123
2023-02-25T22:17:47.767Z,3389.04834
2023-02-25T22:32:49.968Z,2837.2334
2023-02-25T22:47:52.200Z,2540.60938
2023-02-25T23:02:54.460Z,2018.92749
2023-02-25T23:17:56.768Z,1599.88696
2023-02-25T23:32:59.034Z,1558.45374
2023-02-25T23:48:01.250Z,1146.005
